»·PEaware :: N316DL F70-KSBA

N316DL :: F70-KSBA

FLIGHT INFORMATION

Flight Status: Arrived
Operator: Privately registered:
United States
More flights under this callsign
Pilot: Jeff K. (12978)
Aircraft: BEECH AIRCRAFT BARON
(BE58)
More flights by this aircraft type
Origin: F70 French Valley
United States
Destination: KSBA Santa Barbara Mun
United States
More flights between these airports :: More routes between these airports
Route: +PDZ V186 DEANO V27 KWANG
File this flight plan on PilotEdge
Remarks:
Altitude:
(Current/Filed)
6,000ft
Speed:
(Current/Filed)
160kts
Departed: 16-Sep-17 02:05 PM
Arrived: 16-Sep-17 03:15 PM
Distance/Time
Traveled:
144nm/1:10
Distance/Time
To Go:
Arrived

Flight Plot

Page will automatically refresh every two minutes.

Flight plan parsing failed; only flown route is shown


Map Options




Map Legend


Flown Route
Filed Route
Departure Airport
Arrival Airport
Navaid (VOR, NDB)
Fix

Horizontal Profiles

Position Reports

Time Latitude Longitude Heading Altitude Ground
Speed
16-Sep-17 13:50 33.574655 -117.129465 194 1351ft 0kts
16-Sep-17 13:51 33.574347 -117.129470 255 1351ft 0kts
16-Sep-17 13:52 33.574403 -117.129594 7 1351ft 0kts
16-Sep-17 13:53 33.574403 -117.129595 7 1351ft 0kts
16-Sep-17 13:54 33.574403 -117.129594 7 1351ft 0kts
16-Sep-17 13:55 33.574403 -117.129594 7 1351ft 0kts
16-Sep-17 13:56 33.574403 -117.129594 7 1351ft 0kts
16-Sep-17 13:57 33.574403 -117.129594 7 1351ft 0kts
16-Sep-17 13:58 33.574403 -117.129594 7 1351ft 0kts
16-Sep-17 13:59 33.574431 -117.129590 9 1351ft 0kts
16-Sep-17 14:00 33.574531 -117.129540 34 1351ft 0kts
16-Sep-17 14:01 33.574548 -117.129331 147 1351ft 5kts
16-Sep-17 14:02 33.571749 -117.129948 190 1351ft 13kts
16-Sep-17 14:03 33.568970 -117.130657 192 1351ft 13kts
16-Sep-17 14:04 33.566544 -117.131671 6 1351ft 7kts
16-Sep-17 14:05 33.566600 -117.131641 29 1351ft 0kts
16-Sep-17 14:06 33.566323 -117.131188 128 1351ft 0kts
16-Sep-17 14:07 33.566323 -117.131188 128 1351ft 0kts
16-Sep-17 14:08 33.566264 -117.130649 79 1351ft 7kts
16-Sep-17 14:09 33.580152 -117.126711 13 1736ft 108kts
16-Sep-17 14:10 33.612520 -117.135360 310 3022ft 137kts
16-Sep-17 14:11 33.629729 -117.171982 294 4433ft 132kts
16-Sep-17 14:12 33.642882 -117.211628 289 5744ft 128kts
16-Sep-17 14:13 33.659078 -117.255803 296 6229ft 162kts
16-Sep-17 14:14 33.681088 -117.306864 303 6121ft 179kts
16-Sep-17 14:15 33.707410 -117.354117 304 6001ft 178kts
16-Sep-17 14:16 33.745167 -117.386038 326 6001ft 177kts
16-Sep-17 14:17 33.784271 -117.418141 325 6002ft 176kts
16-Sep-17 14:18 33.822651 -117.450089 325 6002ft 175kts
16-Sep-17 14:19 33.861631 -117.482633 325 6012ft 176kts
16-Sep-17 14:20 33.901655 -117.516095 325 5999ft 176kts
16-Sep-17 14:21 33.928507 -117.562825 297 6000ft 174kts
16-Sep-17 14:22 33.948632 -117.615838 293 6000ft 174kts
16-Sep-17 14:23 33.967121 -117.668896 292 6000ft 175kts
16-Sep-17 14:24 33.985945 -117.722930 292 6000ft 175kts
16-Sep-17 14:25 34.004750 -117.776783 289 6007ft 175kts
16-Sep-17 14:26 34.018745 -117.832689 298 6000ft 175kts
16-Sep-17 14:27 34.040700 -117.884975 295 6013ft 175kts
16-Sep-17 14:28 34.058576 -117.938828 285 6000ft 175kts
16-Sep-17 14:29 34.071763 -117.993889 290 6000ft 175kts
16-Sep-17 14:30 34.088520 -118.048534 290 5999ft 174kts
16-Sep-17 14:31 34.104769 -118.101535 290 6000ft 175kts
16-Sep-17 14:32 34.121562 -118.156421 290 6000ft 176kts
16-Sep-17 14:33 34.138172 -118.210814 290 6000ft 177kts
16-Sep-17 14:34 34.149978 -118.267679 272 6001ft 176kts
16-Sep-17 14:35 34.151818 -118.326643 272 6000ft 176kts
16-Sep-17 14:36 34.153657 -118.385779 272 6000ft 176kts
16-Sep-17 14:37 34.155508 -118.444930 272 6000ft 176kts
16-Sep-17 14:38 34.157376 -118.504238 272 6000ft 177kts
16-Sep-17 14:39 34.159259 -118.563642 272 6000ft 177kts
16-Sep-17 14:40 34.163190 -118.622351 281 6021ft 178kts
16-Sep-17 14:41 34.172508 -118.678298 281 5999ft 177kts
16-Sep-17 14:42 34.182205 -118.736456 281 6000ft 177kts
16-Sep-17 14:43 34.191929 -118.794936 281 5999ft 177kts
16-Sep-17 14:44 34.201602 -118.853279 281 6000ft 178kts
16-Sep-17 14:45 34.211276 -118.911810 281 5999ft 177kts
16-Sep-17 14:46 34.220913 -118.970289 281 6000ft 177kts
16-Sep-17 14:47 34.230537 -119.028872 281 5999ft 177kts
16-Sep-17 14:48 34.240115 -119.087362 281 6000ft 177kts
16-Sep-17 14:49 34.249636 -119.145686 281 6000ft 177kts
16-Sep-17 14:50 34.257594 -119.194576 281 6000ft 177kts
16-Sep-17 14:51 34.268663 -119.262789 281 6000ft 177kts
16-Sep-17 14:52 34.278087 -119.321026 281 6000ft 177kts
16-Sep-17 14:53 34.285997 -119.370076 281 5999ft 177kts
16-Sep-17 14:54 34.295588 -119.429768 281 5452ft 186kts
16-Sep-17 14:55 34.302972 -119.502380 272 4259ft 187kts
16-Sep-17 14:56 34.305029 -119.561115 272 4003ft 167kts
16-Sep-17 14:57 34.306708 -119.607621 272 3999ft 164kts
16-Sep-17 14:58 34.308663 -119.662113 272 4003ft 168kts
16-Sep-17 14:59 34.310733 -119.719753 272 4003ft 172kts
16-Sep-17 15:00 34.312817 -119.777566 272 4015ft 172kts
16-Sep-17 15:01 34.314931 -119.835868 272 4000ft 172kts
16-Sep-17 15:02 34.317022 -119.893227 272 4002ft 172kts
16-Sep-17 15:03 34.319130 -119.950767 272 4000ft 172kts
16-Sep-17 15:04 34.321230 -120.007818 272 4029ft 174kts
16-Sep-17 15:05 34.323373 -120.065831 272 4003ft 174kts
16-Sep-17 15:06 34.325539 -120.124247 272 4002ft 174kts
16-Sep-17 15:07 34.327707 -120.182482 272 4004ft 173kts
16-Sep-17 15:08 34.343128 -120.231123 348 4001ft 164kts
16-Sep-17 15:09 34.377800 -120.205697 62 3524ft 158kts
16-Sep-17 15:10 34.393096 -120.170162 61 2847ft 153kts
16-Sep-17 15:11 34.407369 -120.137013 62 2685ft 144kts
16-Sep-17 15:12 34.418594 -120.103806 73 2607ft 149kts
16-Sep-17 15:13 34.420689 -120.062180 93 2386ft 139kts
16-Sep-17 15:14 34.422073 -120.026457 85 2287ft 131kts
16-Sep-17 15:15 34.423796 -119.987331 87 2236ft 133kts
16-Sep-17 15:16 34.424780 -119.944779 89 1406ft 123kts
16-Sep-17 15:17 34.426227 -119.908901 91 963ft 107kts
16-Sep-17 15:18 34.427125 -119.871949 89 334ft 110kts
16-Sep-17 15:19 34.426977 -119.846347 170 11ft 13kts
16-Sep-17 15:20 34.426566 -119.844899 89 11ft 15kts
16-Sep-17 15:21 34.426676 -119.839976 89 10ft 16kts
16-Sep-17 15:22 34.424510 -119.837672 165 9ft 17kts
16-Sep-17 15:23 34.422910 -119.836626 288 8ft 0kts

Navigation Log

Ident Type
Flight plan parsing failed, navigation log unavailable